Time,TemperatureF,DewpointF,PressureIn,WindDirection,WindDirectionDegrees,WindSpeedMPH,WindSpeedGustMPH,Humidity,HourlyPrecipIn,Conditions,Clouds,dailyrainin,SoftwareType,DateUTC
2013-03-27 00:04:00,43.2,34.0,30.07,NW,323,7.0,10.0,69,0.00,,,0.00,weatherlink.com 1.10,2013-03-27 04:04:00,
2013-03-27 00:19:00,43.2,33.0,30.08,NW,316,9.0,12.0,68,0.00,,,0.00,weatherlink.com 1.10,2013-03-27 04:19:00,
2013-03-27 00:34:00,43.0,33.0,30.08,NW,321,7.0,10.0,69,0.00,,,0.00,weatherlink.com 1.10,2013-03-27 04:34:00,
2013-03-27 00:49:00,42.7,33.0,30.08,NW,305,10.0,11.0,69,0.00,,,0.00,weatherlink.com 1.10,2013-03-27 04:49:00,
2013-03-27 01:04:00,42.4,33.0,30.09,NNW,344,7.0,11.0,69,0.00,,,0.00,weatherlink.com 1.10,2013-03-27 05:04:00,
2013-03-27 01:19:00,41.4,33.0,30.09,NNW,338,6.0,11.0,71,0.00,,,0.00,weatherlink.com 1.10,2013-03-27 05:19:00,
2013-03-27 01:34:00,41.1,32.0,30.09,NW,305,8.0,11.0,71,0.00,,,0.00,weatherlink.com 1.10,2013-03-27 05:34:00,
2013-03-27 01:49:00,40.9,32.0,30.09,NW,319,4.0,13.0,71,0.00,,,0.00,weatherlink.com 1.10,2013-03-27 05:49:00,
2013-03-27 02:04:00,40.9,32.0,30.09,NNW,342,9.0,12.0,71,0.00,,,0.00,weatherlink.com 1.10,2013-03-27 06:04:00,
2013-03-27 02:19:00,40.5,32.0,30.09,WNW,298,9.0,10.0,72,0.00,,,0.00,weatherlink.com 1.10,2013-03-27 06:19:00,
2013-03-27 02:34:00,40.4,32.0,30.09,NNW,333,11.0,13.0,72,0.00,,,0.00,weatherlink.com 1.10,2013-03-27 06:34:00,
2013-03-27 02:49:00,40.4,32.0,30.09,NNW,344,6.0,12.0,71,0.00,,,0.00,weatherlink.com 1.10,2013-03-27 06:49:00,
2013-03-27 03:04:00,40.4,31.0,30.08,WNW,297,9.0,10.0,70,0.00,,,0.00,weatherlink.com 1.10,2013-03-27 07:04:00,
2013-03-27 03:19:00,40.1,31.0,30.08,NNW,327,3.0,9.0,71,0.00,,,0.00,weatherlink.com 1.10,2013-03-27 07:19:00,
2013-03-27 03:34:00,39.5,31.0,30.08,NW,313,4.0,9.0,72,0.00,,,0.00,weatherlink.com 1.10,2013-03-27 07:34:00,
2013-03-27 03:49:00,38.8,31.0,30.09,NW,313,6.0,9.0,73,0.00,,,0.00,weatherlink.com 1.10,2013-03-27 07:49:00,
2013-03-27 04:04:00,38.5,31.0,30.09,NW,323,5.0,10.0,74,0.00,,,0.00,weatherlink.com 1.10,2013-03-27 08:04:00,
2013-03-27 04:19:00,38.2,30.0,30.09,NW,315,4.0,10.0,73,0.00,,,0.00,weatherlink.com 1.10,2013-03-27 08:19:00,
2013-03-27 04:34:00,37.9,30.0,30.10,NNW,336,5.0,9.0,74,0.00,,,0.00,weatherlink.com 1.10,2013-03-27 08:34:00,
2013-03-27 04:49:00,37.4,30.0,30.10,WNW,296,6.0,11.0,75,0.00,,,0.00,weatherlink.com 1.10,2013-03-27 08:49:00,
2013-03-27 05:04:00,37.1,30.0,30.10,NW,325,4.0,12.0,76,0.00,,,0.00,weatherlink.com 1.10,2013-03-27 09:04:00,
2013-03-27 05:19:00,37.1,30.0,30.10,NNW,331,4.0,11.0,76,0.00,,,0.00,weatherlink.com 1.10,2013-03-27 09:19:00,
2013-03-27 05:34:00,37.3,30.0,30.10,North,360,4.0,11.0,76,0.00,,,0.00,weatherlink.com 1.10,2013-03-27 09:34:00,
2013-03-27 05:50:00,37.0,30.0,30.11,NNW,329,4.0,10.0,76,0.00,,,0.00,weatherlink.com 1.10,2013-03-27 09:50:00,
2013-03-27 06:05:00,36.5,30.0,30.11,North,355,5.0,10.0,77,0.00,,,0.00,weatherlink.com 1.10,2013-03-27 10:05:00,
2013-03-27 06:20:00,36.3,30.0,30.12,NNW,330,3.0,11.0,77,0.00,,,0.00,weatherlink.com 1.10,2013-03-27 10:20:00,
2013-03-27 06:35:00,36.2,30.0,30.12,NW,314,11.0,12.0,77,0.00,,,0.00,weatherlink.com 1.10,2013-03-27 10:35:00,
2013-03-27 06:50:00,36.1,30.0,30.13,NNW,347,7.0,10.0,78,0.00,,,0.00,weatherlink.com 1.10,2013-03-27 10:50:00,
2013-03-27 07:05:00,36.0,30.0,30.13,NNW,344,5.0,10.0,78,0.00,,,0.00,weatherlink.com 1.10,2013-03-27 11:05:00,
2013-03-27 07:20:00,36.0,30.0,30.14,NNW,342,6.0,13.0,78,0.00,,,0.00,weatherlink.com 1.10,2013-03-27 11:20:00,
2013-03-27 07:35:00,36.0,30.0,30.14,NNW,327,4.0,11.0,78,0.00,,,0.00,weatherlink.com 1.10,2013-03-27 11:35:00,
2013-03-27 07:50:00,36.6,30.0,30.15,NNW,340,10.0,12.0,78,0.00,,,0.00,weatherlink.com 1.10,2013-03-27 11:50:00,
2013-03-27 08:05:00,37.3,31.0,30.16,NW,324,8.0,14.0,77,0.00,,,0.00,weatherlink.com 1.10,2013-03-27 12:05:00,
2013-03-27 08:20:00,38.2,31.0,30.16,NW,317,5.0,14.0,75,0.00,,,0.00,weatherlink.com 1.10,2013-03-27 12:20:00,
2013-03-27 08:35:00,39.3,31.0,30.16,NNW,338,12.0,17.0,72,0.00,,,0.00,weatherlink.com 1.10,2013-03-27 12:35:00,
2013-03-27 08:50:00,40.7,32.0,30.16,NE,37,8.0,15.0,70,0.00,,,0.00,weatherlink.com 1.10,2013-03-27 12:50:00,
2013-03-27 09:05:00,41.0,32.0,30.16,North,11,8.0,15.0,69,0.00,,,0.00,weatherlink.com 1.10,2013-03-27 13:05:00,
2013-03-27 09:20:00,41.9,32.0,30.16,WNW,288,5.0,15.0,68,0.00,,,0.00,weatherlink.com 1.10,2013-03-27 13:20:00,
2013-03-27 09:35:00,43.1,33.0,30.16,North,5,5.0,14.0,67,0.00,,,0.00,weatherlink.com 1.10,2013-03-27 13:35:00,
2013-03-27 09:50:00,43.6,32.0,30.16,North,5,5.0,17.0,64,0.00,,,0.00,weatherlink.com 1.10,2013-03-27 13:50:00,
2013-03-27 10:05:00,44.8,33.0,30.16,North,11,7.0,14.0,63,0.00,,,0.00,weatherlink.com 1.10,2013-03-27 14:05:00,
2013-03-27 10:20:00,45.0,32.0,30.17,North,360,8.0,15.0,60,0.00,,,0.00,weatherlink.com 1.10,2013-03-27 14:20:00,
2013-03-27 10:35:00,45.9,32.0,30.17,North,355,10.0,14.0,58,0.00,,,0.00,weatherlink.com 1.10,2013-03-27 14:35:00,
2013-03-27 10:50:00,47.2,33.0,30.17,NNE,23,3.0,14.0,59,0.00,,,0.00,weatherlink.com 1.10,2013-03-27 14:50:00,
2013-03-27 11:05:00,48.4,33.0,30.16,North,360,2.0,11.0,55,0.00,,,0.00,weatherlink.com 1.10,2013-03-27 15:05:00,
2013-03-27 11:20:00,48.1,31.0,30.16,NE,42,5.0,15.0,51,0.00,,,0.00,weatherlink.com 1.10,2013-03-27 15:20:00,
2013-03-27 11:35:00,49.0,30.0,30.15,North,360,8.0,14.0,48,0.00,,,0.00,weatherlink.com 1.10,2013-03-27 15:35:00,
2013-03-27 11:50:00,49.7,30.0,30.15,North,5,4.0,11.0,47,0.00,,,0.00,weatherlink.com 1.10,2013-03-27 15:50:00,
2013-03-27 12:05:00,49.5,29.0,30.16,NNW,338,9.0,14.0,46,0.00,,,0.00,weatherlink.com 1.10,2013-03-27 16:05:00,
2013-03-27 12:20:00,50.4,30.0,30.15,NNE,13,5.0,11.0,46,0.00,,,0.00,weatherlink.com 1.10,2013-03-27 16:20:00,
2013-03-27 12:35:00,50.6,30.0,30.15,NE,40,8.0,14.0,46,0.00,,,0.00,weatherlink.com 1.10,2013-03-27 16:35:00,
2013-03-27 12:51:00,51.4,30.0,30.14,North,355,7.0,12.0,44,0.00,,,0.00,weatherlink.com 1.10,2013-03-27 16:51:00,
2013-03-27 13:06:00,52.0,29.0,30.14,WNW,292,6.0,11.0,41,0.00,,,0.00,weatherlink.com 1.10,2013-03-27 17:06:00,
2013-03-27 13:21:00,51.5,28.0,30.14,NW,318,11.0,14.0,40,0.00,,,0.00,weatherlink.com 1.10,2013-03-27 17:21:00,
2013-03-27 13:36:00,52.1,28.0,30.14,NW,316,12.0,17.0,39,0.00,,,0.00,weatherlink.com 1.10,2013-03-27 17:36:00,
2013-03-27 13:51:00,51.9,27.0,30.13,North,355,10.0,19.0,39,0.00,,,0.00,weatherlink.com 1.10,2013-03-27 17:51:00,
2013-03-27 14:06:00,52.6,29.0,30.12,West,275,7.0,17.0,40,0.00,,,0.00,weatherlink.com 1.10,2013-03-27 18:06:00,
2013-03-27 14:21:00,52.8,27.0,30.12,West,280,5.0,17.0,37,0.00,,,0.00,weatherlink.com 1.10,2013-03-27 18:21:00,
2013-03-27 14:36:00,53.7,28.0,30.11,NW,319,13.0,19.0,37,0.00,,,0.00,weatherlink.com 1.10,2013-03-27 18:36:00,
2013-03-27 15:06:00,53.8,29.0,30.10,WNW,294,9.0,21.0,38,0.00,,,0.00,weatherlink.com 1.10,2013-03-27 19:06:00,
2013-03-27 15:21:00,54.2,28.0,30.10,NNW,345,6.0,16.0,37,0.00,,,0.00,weatherlink.com 1.10,2013-03-27 19:21:00,
2013-03-27 15:36:00,55.1,29.0,30.10,NNW,348,12.0,16.0,37,0.00,,,0.00,weatherlink.com 1.10,2013-03-27 19:36:00,
2013-03-27 16:06:00,54.7,30.0,30.09,North,9,13.0,18.0,39,0.00,,,0.00,weatherlink.com 1.10,2013-03-27 20:06:00,
2013-03-27 16:21:00,55.1,29.0,30.09,North,10,5.0,17.0,37,0.00,,,0.00,weatherlink.com 1.10,2013-03-27 20:21:00,
2013-03-27 16:36:00,54.9,28.0,30.10,WNW,296,11.0,23.0,36,0.00,,,0.00,weatherlink.com 1.10,2013-03-27 20:36:00,
2013-03-27 16:51:00,54.7,29.0,30.09,NNW,345,8.0,19.0,37,0.00,,,0.00,weatherlink.com 1.10,2013-03-27 20:51:00,
2013-03-27 17:21:00,54.8,28.0,30.10,NNW,331,10.0,18.0,36,0.00,,,0.00,weatherlink.com 1.10,2013-03-27 21:21:00,
2013-03-27 17:36:00,55.0,30.0,30.10,North,9,14.0,15.0,38,0.00,,,0.00,weatherlink.com 1.10,2013-03-27 21:36:00,
2013-03-27 17:51:00,55.0,27.0,30.11,NW,310,10.0,12.0,34,0.00,,,0.00,weatherlink.com 1.10,2013-03-27 21:51:00,
2013-03-27 18:21:00,54.5,30.0,30.11,North,11,10.0,12.0,39,0.00,,,0.00,weatherlink.com 1.10,2013-03-27 22:21:00,
2013-03-27 18:36:00,54.1,29.0,30.11,North,5,5.0,12.0,39,0.00,,,0.00,weatherlink.com 1.10,2013-03-27 22:36:00,
2013-03-27 18:51:00,53.5,29.0,30.11,WNW,291,4.0,11.0,39,0.00,,,0.00,weatherlink.com 1.10,2013-03-27 22:51:00,
2013-03-27 19:06:00,52.8,28.0,30.12,NNW,342,7.0,13.0,39,0.00,,,0.00,weatherlink.com 1.10,2013-03-27 23:06:00,
2013-03-27 19:21:00,52.2,28.0,30.12,WNW,285,5.0,13.0,40,0.00,,,0.00,weatherlink.com 1.10,2013-03-27 23:21:00,
2013-03-27 19:36:00,51.1,29.0,30.13,WNW,295,5.0,11.0,42,0.00,,,0.00,weatherlink.com 1.10,2013-03-27 23:36:00,
2013-03-27 19:51:00,50.3,29.0,30.13,NW,321,4.0,9.0,44,0.00,,,0.00,weatherlink.com 1.10,2013-03-27 23:51:00,
2013-03-27 20:21:00,49.5,29.0,30.14,NNW,342,6.0,11.0,46,0.00,,,0.00,weatherlink.com 1.10,2013-03-28 00:21:00,
2013-03-27 20:36:00,49.1,29.0,30.16,NNW,347,8.0,10.0,47,0.00,,,0.00,weatherlink.com 1.10,2013-03-28 00:36:00,
2013-03-27 20:51:00,48.7,29.0,30.16,North,350,7.0,11.0,47,0.00,,,0.00,weatherlink.com 1.10,2013-03-28 00:51:00,
2013-03-27 21:06:00,48.3,29.0,30.16,NW,317,7.0,12.0,48,0.00,,,0.00,weatherlink.com 1.10,2013-03-28 01:06:00,
2013-03-27 21:36:00,48.0,29.0,30.18,NNW,346,4.0,14.0,48,0.00,,,0.00,weatherlink.com 1.10,2013-03-28 01:36:00,
2013-03-27 21:51:00,47.4,28.0,30.18,WNW,303,8.0,12.0,48,0.00,,,0.00,weatherlink.com 1.10,2013-03-28 01:51:00,
2013-03-27 22:06:00,46.3,28.0,30.19,NNW,327,6.0,10.0,49,0.00,,,0.00,weatherlink.com 1.10,2013-03-28 02:06:00,
2013-03-27 22:21:00,45.9,29.0,30.19,NW,306,5.0,11.0,52,0.00,,,0.00,weatherlink.com 1.10,2013-03-28 02:21:00,
2013-03-27 22:36:00,45.7,29.0,30.19,NNW,332,6.0,10.0,52,0.00,,,0.00,weatherlink.com 1.10,2013-03-28 02:36:00,
2013-03-27 22:51:00,45.4,29.0,30.20,North,5,7.0,11.0,52,0.00,,,0.00,weatherlink.com 1.10,2013-03-28 02:51:00,
2013-03-27 23:06:00,44.9,29.0,30.20,North,351,4.0,8.0,53,0.00,,,0.00,weatherlink.com 1.10,2013-03-28 03:06:00,
2013-03-27 23:21:00,44.6,29.0,30.20,North,355,7.0,12.0,54,0.00,,,0.00,weatherlink.com 1.10,2013-03-28 03:21:00,
2013-03-27 23:36:00,45.1,28.0,30.20,NNW,338,10.0,11.0,52,0.00,,,0.00,weatherlink.com 1.10,2013-03-28 03:36:00,
2013-03-27 23:51:00,44.6,28.0,30.19,NNW,338,7.0,13.0,53,0.00,,,0.00,weatherlink.com 1.10,2013-03-28 03:51:00,